WetterOnline ( http://www.wetteronline.de )

Wetter aktuell Leinfelden-Echterdingen

Aktuelles Wetter: Mühlacker (245m)

6-stündlich | Neueste Meldungen
Ortszeit Temperatur Wetter
Mi, 18.10. 2:00 6.0° C leicht bewölkt
Di, 17.10. 20:00 11.4° C leicht bewölkt
Di, 17.10. 14:00 22.1° C leicht bewölkt
Di, 17.10. 8:00 4.6° C Nebel
Ortszeit Temperatur Wetter
Mi, 18.10. 7:30 3.3° C wolkig
Mi, 18.10. 7:00 3.7° C bewölkt
Mi, 18.10. 6:30 3.8° C wolkig
Mi, 18.10. 6:00 4.1° C wolkig
Mi, 18.10. 5:30 4.5° C Nebel
Mi, 18.10. 5:00 4.8° C Nebel
Ortszeit Relative Feuchte Sichtweite
Mi, 18.10. 2:00 98% 4.8 km
Di, 17.10. 20:00 92% 18 km
Di, 17.10. 14:00 45% 40 km
Di, 17.10. 8:00 99% 0.3 km
Ortszeit Relative Feuchte Sichtweite
Mi, 18.10. 7:30 98% 1.5 km
Mi, 18.10. 7:00 99% 3.0 km
Mi, 18.10. 6:30 98% 2.5 km
Mi, 18.10. 6:00 98% 1.5 km
Mi, 18.10. 5:30 99% 0.2 km
Mi, 18.10. 5:00 99% 0.2 km
Ortszeit Niederschlagsmenge Niederschlagsart
Mi, 18.10. 2:00 0.0 l/m2 in 6 Std. -
Di, 17.10. 20:00 0.0 l/m2 in 12 Std. -
Di, 17.10. 14:00 0.0 l/m2 in 6 Std. -
Di, 17.10. 8:00 0.0 l/m2 in 12 Std. -
Ortszeit Niederschlagsmenge Niederschlagsart
Mi, 18.10. 7:30 keine Meldung -
Mi, 18.10. 7:00 0.0 l/m2 in 1 Std. -
Mi, 18.10. 6:30 keine Meldung -
Mi, 18.10. 6:00 0.0 l/m2 in 1 Std. -
Mi, 18.10. 5:30 keine Meldung -
Mi, 18.10. 5:00 0.0 l/m2 in 1 Std. -
Ortszeit Stärke Spitze Richtung
km/h Bft. km/h Grad Sektor
Mi, 18.10. 2:00 2 1 6 270° W
Di, 17.10. 20:00 0 0 11 - -
Di, 17.10. 14:00 7 2 11 130° SO
Di, 17.10. 8:00 0 0 11 - -
Ortszeit Stärke Spitze Richtung
km/h Bft. km/h Grad Sektor
Mi, 18.10. 7:30 0 0 4 - -
Mi, 18.10. 7:00 0 0 4 - -
Mi, 18.10. 6:30 0 0 4 - -
Mi, 18.10. 6:00 0 0 4 - -
Mi, 18.10. 5:30 2 1 4 270° W
Mi, 18.10. 5:00 4 1 7 270° W
Ortszeit Untergrenze Bedeckung Gattung
total tief tief mittel hoch
Mi, 18.10. 2:00 7800 m 3/8 0/8 - - -
Di, 17.10. 20:00 9000 m 6/8 0/8 - - -
Di, 17.10. 14:00 9000 m 8/8 0/8 - - -
Di, 17.10. 8:00 - 0/8 0/8 - - -
Ortszeit Bedeckungsgrad in Achtel und Wolkenuntergrenze
Mi, 18.10. 7:30 3(6900m) 7(9000m) 7(9000m)
Mi, 18.10. 7:00 7(6900m) 7(7800m) 8(9000m)
Mi, 18.10. 6:30 5(7800m) 7(9000m) 8(9000m)
Mi, 18.10. 6:00 1(30m) 4(9000m) 7(9000m)
Mi, 18.10. 5:30 9 9 9
Mi, 18.10. 5:00 2(30m)
Ortszeit Luftdruck NN (hPa) Tendenz (hPa in 3 Std.)
Mi, 18.10. 2:00 1019 - 1,0
Di, 17.10. 20:00 1020 - 0,3
Di, 17.10. 14:00 1022 - 2,1
Di, 17.10. 8:00 1026 0,0
Ortszeit Luftdruck NN (hPa) Tendenz (hPa in 3 Std.)
Mi, 18.10. 7:30 1019 - 0,3
Mi, 18.10. 7:00 1019 - 0,4
Mi, 18.10. 6:30 1019 - 0,5
Mi, 18.10. 6:00 1019 - 0,5
Mi, 18.10. 5:30 1019 - 0,4
Mi, 18.10. 5:00 1019 - 0,6
Ortszeit Schneehöhe (cm)
Mi, 18.10. 2:00 0
Di, 17.10. 20:00 0
Di, 17.10. 14:00 0
Di, 17.10. 8:00 0
Ortszeit Schneehöhe (cm)
Mi, 18.10. 7:30 0
Mi, 18.10. 7:00 0
Mi, 18.10. 6:30 0
Mi, 18.10. 6:00 0
Mi, 18.10. 5:30 0
Mi, 18.10. 5:00 0
Link zu dieser Seite / Seite empfehlen

Das Wetter in ...